Nagornyj, Russia
Current Conditions -  °F | °C
As of 12:00 PM on Wednesday 22 Oct 2014 (Local Time) from UHBB Reporting Station
Clear Clear  
Wind Chill: 34°   Ceiling: Unl
Heat Index: 37°   Visibility: 6mi
Dew Point:   Wind: 4mph
Humidity: 28%   Direction: 260°W
Pressure: 29.94"   Gusts: NA
Location:  55.97°N, 124.88°E
Report Text: UHBB 220300Z 26002MPS 180V310 CAVOK 03/M14 Q1014 NOSIG RMKQFE743/0991 36090060
Loading
Personal Weather Stations






























Interactive Weather Map
Tropical Storm Tracking
New forecast layout! Learn more

10-Day Weather Forecast

Advertisements
Track Severe Weather on mobile